sensor_id;sensor_type;location;lat;lon;timestamp;pressure;altitude;pressure_sealevel;temperature;humidity
38812;BME280;24553;51.640;-0.752;2022-07-29T00:02:09;101071.31;;;15.43;100.00
38812;BME280;24553;51.640;-0.752;2022-07-29T00:04:35;101071.13;;;15.45;100.00
38812;BME280;24553;51.640;-0.752;2022-07-29T00:07:01;101075.84;;;15.43;100.00
38812;BME280;24553;51.640;-0.752;2022-07-29T00:09:26;101074.41;;;15.40;100.00
38812;BME280;24553;51.640;-0.752;2022-07-29T00:11:53;101070.91;;;15.40;100.00
38812;BME280;24553;51.640;-0.752;2022-07-29T00:14:20;101072.16;;;15.37;100.00
38812;BME280;24553;51.640;-0.752;2022-07-29T00:16:45;101067.44;;;15.33;100.00
38812;BME280;24553;51.640;-0.752;2022-07-29T00:19:11;101072.38;;;15.29;100.00
38812;BME280;24553;51.640;-0.752;2022-07-29T00:21:36;101069.09;;;15.27;100.00
38812;BME280;24553;51.640;-0.752;2022-07-29T00:24:02;101066.03;;;15.23;100.00
38812;BME280;24553;51.640;-0.752;2022-07-29T00:26:27;101077.31;;;15.19;100.00
38812;BME280;24553;51.640;-0.752;2022-07-29T00:28:57;101068.88;;;15.15;100.00
38812;BME280;24553;51.640;-0.752;2022-07-29T00:31:23;101067.25;;;15.14;100.00
38812;BME280;24553;51.640;-0.752;2022-07-29T00:33:48;101068.09;;;15.08;100.00
38812;BME280;24553;51.640;-0.752;2022-07-29T00:36:13;101068.50;;;14.98;100.00
38812;BME280;24553;51.640;-0.752;2022-07-29T00:38:39;101056.78;;;14.93;100.00
38812;BME280;24553;51.640;-0.752;2022-07-29T00:41:06;101061.69;;;14.89;100.00
38812;BME280;24553;51.640;-0.752;2022-07-29T00:43:31;101066.63;;;14.79;100.00
38812;BME280;24553;51.640;-0.752;2022-07-29T00:45:57;101064.56;;;14.68;100.00
38812;BME280;24553;51.640;-0.752;2022-07-29T00:48:22;101066.63;;;14.66;100.00
38812;BME280;24553;51.640;-0.752;2022-07-29T00:50:49;101065.59;;;14.60;100.00
38812;BME280;24553;51.640;-0.752;2022-07-29T00:53:14;101055.28;;;14.50;100.00
38812;BME280;24553;51.640;-0.752;2022-07-29T00:55:40;101064.50;;;14.41;100.00
38812;BME280;24553;51.640;-0.752;2022-07-29T00:58:06;101064.28;;;14.36;100.00
38812;BME280;24553;51.640;-0.752;2022-07-29T01:00:31;101062.19;;;14.25;100.00
38812;BME280;24553;51.640;-0.752;2022-07-29T01:02:57;101066.69;;;14.17;100.00
38812;BME280;24553;51.640;-0.752;2022-07-29T01:05:24;101070.16;;;14.11;100.00
38812;BME280;24553;51.640;-0.752;2022-07-29T01:07:52;101070.34;;;14.03;100.00
38812;BME280;24553;51.640;-0.752;2022-07-29T01:10:19;101068.44;;;13.90;100.00
38812;BME280;24553;51.640;-0.752;2022-07-29T01:12:48;101068.78;;;13.74;100.00
38812;BME280;24553;51.640;-0.752;2022-07-29T01:15:14;101071.16;;;13.62;100.00
38812;BME280;24553;51.640;-0.752;2022-07-29T01:28:51;101079.78;;;13.08;100.00
38812;BME280;24553;51.640;-0.752;2022-07-29T01:31:41;101082.59;;;13.00;100.00
38812;BME280;24553;51.640;-0.752;2022-07-29T01:34:11;101086.59;;;12.89;100.00
38812;BME280;24553;51.640;-0.752;2022-07-29T01:36:48;101077.09;;;12.80;100.00
38812;BME280;24553;51.640;-0.752;2022-07-29T01:39:35;101079.25;;;12.70;100.00
38812;BME280;24553;51.640;-0.752;2022-07-29T01:42:08;101078.56;;;12.61;100.00
38812;BME280;24553;51.640;-0.752;2022-07-29T01:44:59;101081.13;;;12.54;100.00
38812;BME280;24553;51.640;-0.752;2022-07-29T01:47:34;101091.06;;;12.46;100.00
38812;BME280;24553;51.640;-0.752;2022-07-29T01:50:06;101083.22;;;12.37;100.00
38812;BME280;24553;51.640;-0.752;2022-07-29T01:52:39;101086.59;;;12.31;100.00
38812;BME280;24553;51.640;-0.752;2022-07-29T01:55:11;101095.53;;;12.23;100.00
38812;BME280;24553;51.640;-0.752;2022-07-29T01:57:38;101092.38;;;12.13;100.00
38812;BME280;24553;51.640;-0.752;2022-07-29T02:00:06;101099.59;;;12.05;100.00
38812;BME280;24553;51.640;-0.752;2022-07-29T02:02:33;101089.72;;;11.98;100.00
38812;BME280;24553;51.640;-0.752;2022-07-29T02:05:02;101102.75;;;11.93;100.00
38812;BME280;24553;51.640;-0.752;2022-07-29T02:07:29;101097.16;;;11.88;100.00
38812;BME280;24553;51.640;-0.752;2022-07-29T02:09:56;101103.16;;;11.82;100.00
38812;BME280;24553;51.640;-0.752;2022-07-29T02:12:23;101105.09;;;11.73;100.00
38812;BME280;24553;51.640;-0.752;2022-07-29T02:14:53;101106.00;;;11.66;100.00
38812;BME280;24553;51.640;-0.752;2022-07-29T02:17:25;101111.41;;;11.57;100.00
38812;BME280;24553;51.640;-0.752;2022-07-29T02:19:53;101105.66;;;11.54;100.00
38812;BME280;24553;51.640;-0.752;2022-07-29T02:22:21;101106.56;;;11.46;100.00
38812;BME280;24553;51.640;-0.752;2022-07-29T02:24:50;101107.25;;;11.40;100.00
38812;BME280;24553;51.640;-0.752;2022-07-29T02:27:17;101111.84;;;11.31;100.00
38812;BME280;24553;51.640;-0.752;2022-07-29T02:29:45;101111.06;;;11.23;100.00
38812;BME280;24553;51.640;-0.752;2022-07-29T02:32:13;101114.81;;;11.13;100.00
38812;BME280;24553;51.640;-0.752;2022-07-29T02:34:40;101112.03;;;11.07;100.00
38812;BME280;24553;51.640;-0.752;2022-07-29T02:37:09;101120.06;;;10.99;100.00
38812;BME280;24553;51.640;-0.752;2022-07-29T02:39:36;101124.56;;;10.98;100.00
38812;BME280;24553;51.640;-0.752;2022-07-29T02:42:05;101126.56;;;10.96;100.00
38812;BME280;24553;51.640;-0.752;2022-07-29T02:44:32;101115.28;;;10.94;100.00
38812;BME280;24553;51.640;-0.752;2022-07-29T02:47:23;101120.78;;;10.93;100.00
38812;BME280;24553;51.640;-0.752;2022-07-29T02:49:55;101127.50;;;10.80;100.00
38812;BME280;24553;51.640;-0.752;2022-07-29T02:55:26;101120.88;;;10.53;100.00
38812;BME280;24553;51.640;-0.752;2022-07-29T02:57:59;101125.72;;;10.50;100.00
38812;BME280;24553;51.640;-0.752;2022-07-29T03:00:28;101120.59;;;10.48;100.00
38812;BME280;24553;51.640;-0.752;2022-07-29T03:02:56;101119.75;;;10.47;100.00
38812;BME280;24553;51.640;-0.752;2022-07-29T03:05:24;101124.75;;;10.42;100.00
38812;BME280;24553;51.640;-0.752;2022-07-29T03:07:56;101122.63;;;10.38;100.00
38812;BME280;24553;51.640;-0.752;2022-07-29T03:10:25;101128.41;;;10.41;100.00
38812;BME280;24553;51.640;-0.752;2022-07-29T03:12:51;101126.41;;;10.43;100.00
38812;BME280;24553;51.640;-0.752;2022-07-29T03:15:17;101122.94;;;10.43;100.00
38812;BME280;24553;51.640;-0.752;2022-07-29T03:17:43;101123.81;;;10.35;100.00
38812;BME280;24553;51.640;-0.752;2022-07-29T03:20:10;101129.44;;;10.32;100.00
38812;BME280;24553;51.640;-0.752;2022-07-29T03:22:40;101125.44;;;10.36;100.00
38812;BME280;24553;51.640;-0.752;2022-07-29T03:25:13;101115.97;;;10.42;100.00
38812;BME280;24553;51.640;-0.752;2022-07-29T03:27:39;101114.28;;;10.49;100.00
38812;BME280;24553;51.640;-0.752;2022-07-29T03:30:06;101119.38;;;10.51;100.00
38812;BME280;24553;51.640;-0.752;2022-07-29T03:32:31;101117.94;;;10.48;100.00
38812;BME280;24553;51.640;-0.752;2022-07-29T03:34:57;101124.88;;;10.49;100.00
38812;BME280;24553;51.640;-0.752;2022-07-29T03:37:22;101124.88;;;10.49;100.00
38812;BME280;24553;51.640;-0.752;2022-07-29T03:39:49;101124.06;;;10.48;100.00
38812;BME280;24553;51.640;-0.752;2022-07-29T03:42:17;101123.25;;;10.48;100.00
38812;BME280;24553;51.640;-0.752;2022-07-29T03:44:45;101123.88;;;10.50;100.00
38812;BME280;24553;51.640;-0.752;2022-07-29T03:47:13;101127.91;;;10.46;100.00
38812;BME280;24553;51.640;-0.752;2022-07-29T03:49:40;101129.06;;;10.43;100.00
38812;BME280;24553;51.640;-0.752;2022-07-29T03:52:07;101129.75;;;10.37;100.00
38812;BME280;24553;51.640;-0.752;2022-07-29T03:54:33;101132.22;;;10.39;100.00
38812;BME280;24553;51.640;-0.752;2022-07-29T03:57:01;101135.91;;;10.38;100.00
38812;BME280;24553;51.640;-0.752;2022-07-29T03:59:27;101150.94;;;10.37;100.00
38812;BME280;24553;51.640;-0.752;2022-07-29T04:01:53;101149.16;;;10.38;100.00
38812;BME280;24553;51.640;-0.752;2022-07-29T04:04:21;101143.34;;;10.34;100.00
38812;BME280;24553;51.640;-0.752;2022-07-29T04:06:46;101148.53;;;10.28;100.00
38812;BME280;24553;51.640;-0.752;2022-07-29T04:09:12;101147.53;;;10.20;100.00
38812;BME280;24553;51.640;-0.752;2022-07-29T04:11:41;101142.22;;;10.20;100.00
38812;BME280;24553;51.640;-0.752;2022-07-29T04:14:07;101145.34;;;10.24;100.00
38812;BME280;24553;51.640;-0.752;2022-07-29T04:16:32;101145.34;;;10.32;100.00
38812;BME280;24553;51.640;-0.752;2022-07-29T04:18:58;101145.03;;;10.35;100.00
38812;BME280;24553;51.640;-0.752;2022-07-29T04:21:24;101147.66;;;10.35;100.00
38812;BME280;24553;51.640;-0.752;2022-07-29T04:23:49;101145.50;;;10.39;100.00
38812;BME280;24553;51.640;-0.752;2022-07-29T04:26:19;101148.78;;;10.41;100.00
38812;BME280;24553;51.640;-0.752;2022-07-29T04:28:45;101146.97;;;10.41;100.00
38812;BME280;24553;51.640;-0.752;2022-07-29T04:31:11;101147.97;;;10.40;100.00
38812;BME280;24553;51.640;-0.752;2022-07-29T04:33:37;101156.56;;;10.42;100.00
38812;BME280;24553;51.640;-0.752;2022-07-29T04:36:03;101143.97;;;10.44;100.00
38812;BME280;24553;51.640;-0.752;2022-07-29T04:38:28;101148.91;;;10.47;100.00
38812;BME280;24553;51.640;-0.752;2022-07-29T04:40:53;101151.56;;;10.47;100.00
38812;BME280;24553;51.640;-0.752;2022-07-29T04:43:19;101156.34;;;10.52;100.00
38812;BME280;24553;51.640;-0.752;2022-07-29T04:45:44;101151.34;;;10.57;100.00
38812;BME280;24553;51.640;-0.752;2022-07-29T04:48:10;101156.78;;;10.64;100.00
38812;BME280;24553;51.640;-0.752;2022-07-29T04:50:38;101152.63;;;10.69;100.00
38812;BME280;24553;51.640;-0.752;2022-07-29T04:53:03;101159.69;;;10.77;100.00
38812;BME280;24553;51.640;-0.752;2022-07-29T04:55:29;101152.56;;;10.78;100.00
38812;BME280;24553;51.640;-0.752;2022-07-29T04:57:54;101148.88;;;10.79;100.00
38812;BME280;24553;51.640;-0.752;2022-07-29T05:00:19;101152.41;;;10.79;100.00
38812;BME280;24553;51.640;-0.752;2022-07-29T05:02:45;101155.88;;;10.80;100.00
38812;BME280;24553;51.640;-0.752;2022-07-29T05:05:10;101154.03;;;10.80;100.00
38812;BME280;24553;51.640;-0.752;2022-07-29T05:07:35;101163.09;;;10.86;100.00
38812;BME280;24553;51.640;-0.752;2022-07-29T05:10:01;101154.63;;;10.90;100.00
38812;BME280;24553;51.640;-0.752;2022-07-29T05:12:26;101165.19;;;10.99;100.00
38812;BME280;24553;51.640;-0.752;2022-07-29T05:14:52;101157.63;;;11.10;100.00
38812;BME280;24553;51.640;-0.752;2022-07-29T05:17:18;101155.56;;;11.21;100.00
38812;BME280;24553;51.640;-0.752;2022-07-29T05:19:44;101161.78;;;11.28;100.00
38812;BME280;24553;51.640;-0.752;2022-07-29T05:22:09;101150.84;;;11.31;100.00
38812;BME280;24553;51.640;-0.752;2022-07-29T05:24:34;101153.78;;;11.36;100.00
38812;BME280;24553;51.640;-0.752;2022-07-29T05:27:00;101154.88;;;11.42;100.00
38812;BME280;24553;51.640;-0.752;2022-07-29T05:29:25;101156.34;;;11.44;100.00
38812;BME280;24553;51.640;-0.752;2022-07-29T05:31:51;101159.09;;;11.51;100.00
38812;BME280;24553;51.640;-0.752;2022-07-29T05:34:18;101165.53;;;11.56;100.00
38812;BME280;24553;51.640;-0.752;2022-07-29T05:36:44;101161.34;;;11.62;100.00
38812;BME280;24553;51.640;-0.752;2022-07-29T05:39:10;101157.78;;;11.70;100.00
38812;BME280;24553;51.640;-0.752;2022-07-29T05:41:35;101160.50;;;11.76;100.00
38812;BME280;24553;51.640;-0.752;2022-07-29T05:44:01;101167.56;;;11.84;100.00
38812;BME280;24553;51.640;-0.752;2022-07-29T05:46:27;101169.19;;;11.93;100.00
38812;BME280;24553;51.640;-0.752;2022-07-29T05:48:52;101169.53;;;12.05;100.00
38812;BME280;24553;51.640;-0.752;2022-07-29T05:51:18;101175.03;;;12.18;100.00
38812;BME280;24553;51.640;-0.752;2022-07-29T05:53:43;101177.22;;;12.30;100.00
38812;BME280;24553;51.640;-0.752;2022-07-29T05:56:09;101185.19;;;12.44;100.00
38812;BME280;24553;51.640;-0.752;2022-07-29T05:58:35;101177.75;;;12.55;100.00
38812;BME280;24553;51.640;-0.752;2022-07-29T06:01:01;101182.56;;;12.66;100.00
38812;BME280;24553;51.640;-0.752;2022-07-29T06:03:26;101170.44;;;12.78;100.00
38812;BME280;24553;51.640;-0.752;2022-07-29T06:05:52;101174.84;;;12.93;100.00
38812;BME280;24553;51.640;-0.752;2022-07-29T06:08:17;101161.66;;;13.06;100.00
38812;BME280;24553;51.640;-0.752;2022-07-29T06:10:43;101164.66;;;13.18;100.00
38812;BME280;24553;51.640;-0.752;2022-07-29T06:13:09;101165.19;;;13.28;100.00
38812;BME280;24553;51.640;-0.752;2022-07-29T06:15:34;101161.19;;;13.39;100.00
38812;BME280;24553;51.640;-0.752;2022-07-29T06:18:00;101165.16;;;13.49;100.00
38812;BME280;24553;51.640;-0.752;2022-07-29T06:20:25;101168.13;;;13.61;100.00
38812;BME280;24553;51.640;-0.752;2022-07-29T06:22:51;101162.63;;;13.69;100.00
38812;BME280;24553;51.640;-0.752;2022-07-29T06:25:17;101165.78;;;13.80;100.00
38812;BME280;24553;51.640;-0.752;2022-07-29T06:27:42;101159.88;;;13.84;100.00
38812;BME280;24553;51.640;-0.752;2022-07-29T06:30:08;101161.09;;;13.88;100.00
38812;BME280;24553;51.640;-0.752;2022-07-29T06:32:33;101171.41;;;13.98;100.00
38812;BME280;24553;51.640;-0.752;2022-07-29T06:35:00;101167.81;;;14.12;100.00
38812;BME280;24553;51.640;-0.752;2022-07-29T06:37:25;101165.38;;;14.24;100.00
38812;BME280;24553;51.640;-0.752;2022-07-29T06:39:51;101168.09;;;14.37;100.00
38812;BME280;24553;51.640;-0.752;2022-07-29T06:42:36;101175.56;;;14.49;100.00
38812;BME280;24553;51.640;-0.752;2022-07-29T06:45:02;101170.88;;;14.57;100.00
38812;BME280;24553;51.640;-0.752;2022-07-29T06:47:27;101165.38;;;14.66;100.00
38812;BME280;24553;51.640;-0.752;2022-07-29T06:49:52;101165.19;;;14.74;100.00
38812;BME280;24553;51.640;-0.752;2022-07-29T06:52:18;101161.50;;;14.81;100.00
38812;BME280;24553;51.640;-0.752;2022-07-29T06:54:43;101167.91;;;14.87;100.00
38812;BME280;24553;51.640;-0.752;2022-07-29T06:57:13;101169.75;;;14.93;100.00
38812;BME280;24553;51.640;-0.752;2022-07-29T06:59:38;101169.34;;;15.03;100.00
38812;BME280;24553;51.640;-0.752;2022-07-29T07:02:04;101173.47;;;15.19;100.00
38812;BME280;24553;51.640;-0.752;2022-07-29T07:04:29;101166.09;;;15.34;100.00
38812;BME280;24553;51.640;-0.752;2022-07-29T07:06:55;101167.50;;;15.50;100.00
38812;BME280;24553;51.640;-0.752;2022-07-29T07:09:21;101173.47;;;15.65;100.00
38812;BME280;24553;51.640;-0.752;2022-07-29T07:11:46;101166.69;;;15.83;100.00
38812;BME280;24553;51.640;-0.752;2022-07-29T07:14:11;101167.66;;;16.02;100.00
38812;BME280;24553;51.640;-0.752;2022-07-29T07:16:37;101165.56;;;16.10;100.00
38812;BME280;24553;51.640;-0.752;2022-07-29T07:19:02;101164.75;;;16.17;100.00
38812;BME280;24553;51.640;-0.752;2022-07-29T07:21:28;101163.47;;;16.26;100.00
38812;BME280;24553;51.640;-0.752;2022-07-29T07:23:53;101160.59;;;16.27;100.00
38812;BME280;24553;51.640;-0.752;2022-07-29T07:26:18;101161.19;;;16.29;100.00
38812;BME280;24553;51.640;-0.752;2022-07-29T07:28:44;101154.78;;;16.37;100.00
38812;BME280;24553;51.640;-0.752;2022-07-29T07:31:10;101157.84;;;16.41;100.00
38812;BME280;24553;51.640;-0.752;2022-07-29T07:33:35;101154.97;;;16.42;100.00
38812;BME280;24553;51.640;-0.752;2022-07-29T07:36:01;101151.75;;;16.65;100.00
38812;BME280;24553;51.640;-0.752;2022-07-29T07:38:26;101149.38;;;16.89;100.00
38812;BME280;24553;51.640;-0.752;2022-07-29T07:40:52;101157.31;;;17.02;100.00
38812;BME280;24553;51.640;-0.752;2022-07-29T07:43:17;101155.81;;;17.06;100.00
38812;BME280;24553;51.640;-0.752;2022-07-29T07:45:42;101142.94;;;17.21;100.00
38812;BME280;24553;51.640;-0.752;2022-07-29T07:48:08;101143.16;;;17.45;100.00
38812;BME280;24553;51.640;-0.752;2022-07-29T07:50:35;101144.63;;;17.66;100.00
38812;BME280;24553;51.640;-0.752;2022-07-29T07:53:01;101146.06;;;17.87;100.00
38812;BME280;24553;51.640;-0.752;2022-07-29T07:55:27;101136.50;;;17.91;100.00
38812;BME280;24553;51.640;-0.752;2022-07-29T07:57:54;101135.94;;;18.07;100.00
38812;BME280;24553;51.640;-0.752;2022-07-29T08:00:20;101140.25;;;18.08;100.00
38812;BME280;24553;51.640;-0.752;2022-07-29T08:02:45;101135.94;;;17.89;100.00
38812;BME280;24553;51.640;-0.752;2022-07-29T08:05:11;101140.56;;;17.82;100.00
38812;BME280;24553;51.640;-0.752;2022-07-29T08:07:40;101130.25;;;17.79;100.00
38812;BME280;24553;51.640;-0.752;2022-07-29T08:10:06;101136.22;;;17.81;100.00
38812;BME280;24553;51.640;-0.752;2022-07-29T08:12:32;101135.19;;;17.82;100.00
38812;BME280;24553;51.640;-0.752;2022-07-29T08:14:57;101122.09;;;17.92;100.00
38812;BME280;24553;51.640;-0.752;2022-07-29T08:17:23;101123.94;;;18.10;100.00
38812;BME280;24553;51.640;-0.752;2022-07-29T08:19:48;101122.53;;;18.38;100.00
38812;BME280;24553;51.640;-0.752;2022-07-29T08:22:14;101119.56;;;18.58;100.00
38812;BME280;24553;51.640;-0.752;2022-07-29T08:24:40;101117.16;;;18.68;100.00
38812;BME280;24553;51.640;-0.752;2022-07-29T08:27:11;101123.88;;;18.77;100.00
38812;BME280;24553;51.640;-0.752;2022-07-29T08:29:37;101119.59;;;19.00;100.00
38812;BME280;24553;51.640;-0.752;2022-07-29T08:32:03;101124.31;;;19.16;100.00
38812;BME280;24553;51.640;-0.752;2022-07-29T08:34:29;101108.53;;;19.31;100.00
38812;BME280;24553;51.640;-0.752;2022-07-29T08:36:55;101116.22;;;19.51;100.00
38812;BME280;24553;51.640;-0.752;2022-07-29T08:39:21;101113.31;;;19.76;100.00
38812;BME280;24553;51.640;-0.752;2022-07-29T08:41:47;101111.44;;;19.89;100.00
38812;BME280;24553;51.640;-0.752;2022-07-29T08:44:13;101109.22;;;19.74;100.00
38812;BME280;24553;51.640;-0.752;2022-07-29T08:46:38;101109.09;;;19.80;100.00
38812;BME280;24553;51.640;-0.752;2022-07-29T08:49:04;101106.16;;;19.94;100.00
38812;BME280;24553;51.640;-0.752;2022-07-29T08:51:31;101107.75;;;20.07;100.00
38812;BME280;24553;51.640;-0.752;2022-07-29T08:53:58;101111.59;;;20.11;100.00
38812;BME280;24553;51.640;-0.752;2022-07-29T08:56:24;101110.25;;;20.25;100.00
38812;BME280;24553;51.640;-0.752;2022-07-29T08:58:50;101111.22;;;20.47;100.00
38812;BME280;24553;51.640;-0.752;2022-07-29T09:01:22;101099.78;;;20.69;100.00
38812;BME280;24553;51.640;-0.752;2022-07-29T09:03:48;101099.47;;;20.82;100.00
38812;BME280;24553;51.640;-0.752;2022-07-29T09:06:14;101104.44;;;20.74;100.00
38812;BME280;24553;51.640;-0.752;2022-07-29T09:08:42;101106.16;;;20.63;100.00
38812;BME280;24553;51.640;-0.752;2022-07-29T09:11:20;101102.88;;;20.61;100.00
38812;BME280;24553;51.640;-0.752;2022-07-29T09:13:45;101108.13;;;20.84;100.00
38812;BME280;24553;51.640;-0.752;2022-07-29T09:16:11;101110.44;;;21.09;100.00
38812;BME280;24553;51.640;-0.752;2022-07-29T09:18:39;101100.75;;;21.30;100.00
38812;BME280;24553;51.640;-0.752;2022-07-29T09:21:06;101103.63;;;21.41;100.00
38812;BME280;24553;51.640;-0.752;2022-07-29T09:24:08;101096.50;;;21.34;100.00
38812;BME280;24553;51.640;-0.752;2022-07-29T09:26:39;101098.94;;;21.36;100.00
38812;BME280;24553;51.640;-0.752;2022-07-29T09:29:08;101093.88;;;21.56;100.00
38812;BME280;24553;51.640;-0.752;2022-07-29T09:31:38;101096.78;;;21.72;100.00
38812;BME280;24553;51.640;-0.752;2022-07-29T09:34:04;101092.75;;;21.96;100.00
38812;BME280;24553;51.640;-0.752;2022-07-29T09:36:30;101086.59;;;22.23;100.00
38812;BME280;24553;51.640;-0.752;2022-07-29T09:39:00;101093.97;;;22.33;100.00
38812;BME280;24553;51.640;-0.752;2022-07-29T09:41:29;101091.09;;;22.39;100.00
38812;BME280;24553;51.640;-0.752;2022-07-29T09:43:59;101093.59;;;22.46;100.00
38812;BME280;24553;51.640;-0.752;2022-07-29T09:46:25;101084.94;;;22.44;100.00
38812;BME280;24553;51.640;-0.752;2022-07-29T09:49:10;101089.09;;;22.30;100.00
38812;BME280;24553;51.640;-0.752;2022-07-29T09:51:36;101085.78;;;22.23;100.00
38812;BME280;24553;51.640;-0.752;2022-07-29T09:54:02;101088.75;;;22.21;100.00
38812;BME280;24553;51.640;-0.752;2022-07-29T09:56:40;101089.63;;;22.54;100.00
38812;BME280;24553;51.640;-0.752;2022-07-29T09:59:06;101087.69;;;22.81;100.00
38812;BME280;24553;51.640;-0.752;2022-07-29T10:01:32;101088.75;;;23.13;100.00
38812;BME280;24553;51.640;-0.752;2022-07-29T10:03:57;101073.50;;;23.39;100.00
38812;BME280;24553;51.640;-0.752;2022-07-29T10:06:22;101070.09;;;23.59;99.56
38812;BME280;24553;51.640;-0.752;2022-07-29T10:08:48;101071.72;;;23.60;97.43
38812;BME280;24553;51.640;-0.752;2022-07-29T10:11:16;101072.56;;;23.65;96.90
38812;BME280;24553;51.640;-0.752;2022-07-29T10:13:43;101071.47;;;23.66;95.59
38812;BME280;24553;51.640;-0.752;2022-07-29T10:16:09;101070.19;;;23.79;97.13
38812;BME280;24553;51.640;-0.752;2022-07-29T10:18:35;101080.88;;;24.06;96.67
38812;BME280;24553;51.640;-0.752;2022-07-29T10:21:03;101082.28;;;24.24;95.00
38812;BME280;24553;51.640;-0.752;2022-07-29T10:23:29;101085.44;;;24.06;92.97
38812;BME280;24553;51.640;-0.752;2022-07-29T10:25:54;101082.69;;;23.90;92.46
38812;BME280;24553;51.640;-0.752;2022-07-29T10:28:20;101076.88;;;23.66;91.48
38812;BME280;24553;51.640;-0.752;2022-07-29T10:30:46;101083.38;;;23.60;89.66
38812;BME280;24553;51.640;-0.752;2022-07-29T10:36:11;101081.06;;;23.84;87.14
38812;BME280;24553;51.640;-0.752;2022-07-29T10:39:00;101080.66;;;23.60;83.26
38812;BME280;24553;51.640;-0.752;2022-07-29T10:44:14;101074.00;;;23.30;85.97
38812;BME280;24553;51.640;-0.752;2022-07-29T10:46:42;101078.06;;;23.33;84.85
38812;BME280;24553;51.640;-0.752;2022-07-29T10:49:17;101070.56;;;22.98;85.51
38812;BME280;24553;51.640;-0.752;2022-07-29T10:52:02;101072.28;;;23.14;84.49
38812;BME280;24553;51.640;-0.752;2022-07-29T10:57:23;101065.09;;;23.93;82.86
38812;BME280;24553;51.640;-0.752;2022-07-29T11:05:18;101072.00;;;25.23;81.29
38812;BME280;24553;51.640;-0.752;2022-07-29T11:10:38;101067.59;;;25.58;81.58
38812;BME280;24553;51.640;-0.752;2022-07-29T11:13:03;101068.09;;;25.60;82.83
38812;BME280;24553;51.640;-0.752;2022-07-29T11:15:28;101066.28;;;25.40;81.21
38812;BME280;24553;51.640;-0.752;2022-07-29T11:21:00;101070.09;;;25.24;76.17
38812;BME280;24553;51.640;-0.752;2022-07-29T11:31:16;101070.50;;;23.78;81.64
38812;BME280;24553;51.640;-0.752;2022-07-29T11:33:43;101073.47;;;23.81;81.58
38812;BME280;24553;51.640;-0.752;2022-07-29T11:36:14;101070.63;;;23.56;80.27
38812;BME280;24553;51.640;-0.752;2022-07-29T11:38:40;101069.13;;;23.75;80.17
38812;BME280;24553;51.640;-0.752;2022-07-29T11:41:25;101073.34;;;24.44;77.94
38812;BME280;24553;51.640;-0.752;2022-07-29T11:43:55;101075.53;;;24.98;76.58
38812;BME280;24553;51.640;-0.752;2022-07-29T11:46:44;101067.63;;;25.48;74.62
38812;BME280;24553;51.640;-0.752;2022-07-29T11:49:11;101073.44;;;25.86;74.68
38812;BME280;24553;51.640;-0.752;2022-07-29T11:51:37;101069.81;;;25.41;74.41
38812;BME280;24553;51.640;-0.752;2022-07-29T11:54:04;101072.88;;;25.84;76.93
38812;BME280;24553;51.640;-0.752;2022-07-29T11:56:31;101073.31;;;26.51;74.20
38812;BME280;24553;51.640;-0.752;2022-07-29T11:59:07;101058.41;;;26.43;70.93
38812;BME280;24553;51.640;-0.752;2022-07-29T12:01:35;101051.47;;;26.27;72.90
38812;BME280;24553;51.640;-0.752;2022-07-29T12:04:07;101056.34;;;25.80;73.78
38812;BME280;24553;51.640;-0.752;2022-07-29T12:06:35;101059.25;;;25.24;74.86
38812;BME280;24553;51.640;-0.752;2022-07-29T12:09:07;101060.13;;;24.68;75.48
38812;BME280;24553;51.640;-0.752;2022-07-29T12:11:33;101061.91;;;24.11;76.12
38812;BME280;24553;51.640;-0.752;2022-07-29T12:13:58;101061.31;;;23.94;76.05
38812;BME280;24553;51.640;-0.752;2022-07-29T12:16:35;101064.09;;;24.20;77.31
38812;BME280;24553;51.640;-0.752;2022-07-29T12:19:02;101061.47;;;24.45;76.19
38812;BME280;24553;51.640;-0.752;2022-07-29T12:21:48;101055.50;;;24.48;76.25
38812;BME280;24553;51.640;-0.752;2022-07-29T12:24:14;101057.66;;;24.67;76.83
38812;BME280;24553;51.640;-0.752;2022-07-29T12:26:54;101046.25;;;24.90;74.64
38812;BME280;24553;51.640;-0.752;2022-07-29T12:29:21;101048.09;;;25.36;73.73
38812;BME280;24553;51.640;-0.752;2022-07-29T12:31:51;101045.03;;;25.58;73.56
38812;BME280;24553;51.640;-0.752;2022-07-29T12:34:20;101040.97;;;25.55;74.14
38812;BME280;24553;51.640;-0.752;2022-07-29T12:36:48;101034.56;;;25.96;73.36
38812;BME280;24553;51.640;-0.752;2022-07-29T12:39:15;101036.25;;;26.31;73.74
38812;BME280;24553;51.640;-0.752;2022-07-29T12:41:41;101032.13;;;25.94;72.18
38812;BME280;24553;51.640;-0.752;2022-07-29T12:44:07;101033.03;;;25.74;72.36
38812;BME280;24553;51.640;-0.752;2022-07-29T12:46:32;101034.44;;;26.16;72.96
38812;BME280;24553;51.640;-0.752;2022-07-29T12:48:58;101016.59;;;26.73;70.11
38812;BME280;24553;51.640;-0.752;2022-07-29T12:51:49;101016.63;;;27.27;69.40
38812;BME280;24553;51.640;-0.752;2022-07-29T12:54:15;101020.06;;;27.56;68.25
38812;BME280;24553;51.640;-0.752;2022-07-29T12:56:42;101018.72;;;27.35;67.88
38812;BME280;24553;51.640;-0.752;2022-07-29T12:59:25;101025.31;;;27.00;66.94
38812;BME280;24553;51.640;-0.752;2022-07-29T13:01:51;101028.09;;;27.48;68.28
38812;BME280;24553;51.640;-0.752;2022-07-29T13:04:31;101019.38;;;28.08;65.98
38812;BME280;24553;51.640;-0.752;2022-07-29T13:07:02;101017.31;;;28.70;65.87
38812;BME280;24553;51.640;-0.752;2022-07-29T13:09:42;101010.91;;;29.21;63.42
38812;BME280;24553;51.640;-0.752;2022-07-29T13:12:09;101014.06;;;29.28;64.07
38812;BME280;24553;51.640;-0.752;2022-07-29T13:14:39;101012.53;;;29.50;61.91
38812;BME280;24553;51.640;-0.752;2022-07-29T13:19:53;101016.84;;;29.78;60.26
38812;BME280;24553;51.640;-0.752;2022-07-29T13:22:23;101021.09;;;29.85;59.52